createdAt,value
2018-04-25T00:00:32.571Z,987.46
2018-04-25T00:02:28.461Z,987.48
2018-04-25T00:03:28.415Z,987.48
2018-04-25T00:05:21.796Z,987.47
2018-04-25T00:06:21.749Z,987.40
2018-04-25T00:08:15.182Z,987.42
2018-04-25T00:09:15.116Z,987.44
2018-04-25T00:11:08.502Z,987.42
2018-04-25T00:12:08.453Z,987.40
2018-04-25T00:14:04.340Z,987.41
2018-04-25T00:15:04.286Z,987.45
2018-04-25T00:16:57.699Z,987.37
2018-04-25T00:17:57.626Z,987.32
2018-04-25T00:19:51.040Z,987.31
2018-04-25T00:20:51.017Z,987.31
2018-04-25T00:22:44.333Z,987.28
2018-04-25T00:23:44.288Z,987.28
2018-04-25T00:25:37.719Z,987.23
2018-04-25T00:26:37.658Z,987.23
2018-04-25T00:28:31.101Z,987.27
2018-04-25T00:29:31.030Z,987.24
2018-04-25T00:31:26.919Z,987.22
2018-04-25T00:32:26.854Z,987.19
2018-04-25T00:34:20.280Z,987.16
2018-04-25T00:35:20.222Z,987.14
2018-04-25T00:37:13.645Z,987.12
2018-04-25T00:38:13.595Z,987.11
2018-04-25T00:40:06.991Z,987.11
2018-04-25T00:41:06.944Z,987.06
2018-04-25T00:43:00.327Z,987.01
2018-04-25T00:44:00.282Z,987.02
2018-04-25T00:45:53.647Z,987.00
2018-04-25T00:46:53.605Z,986.97
2018-04-25T00:48:46.993Z,986.94
2018-04-25T00:49:46.930Z,986.97
2018-04-25T00:51:40.305Z,986.92
2018-04-25T00:52:40.258Z,986.92
2018-04-25T00:54:36.190Z,986.90
2018-04-25T00:55:36.123Z,986.87
2018-04-25T00:57:29.573Z,986.80
2018-04-25T00:58:29.510Z,986.87
2018-04-25T01:00:22.898Z,986.81
2018-04-25T01:01:22.844Z,986.78
2018-04-25T01:03:18.732Z,986.76
2018-04-25T01:04:18.681Z,986.73
2018-04-25T01:06:12.066Z,986.72
2018-04-25T01:07:12.007Z,986.70
2018-04-25T01:09:07.923Z,986.66
2018-04-25T01:10:07.867Z,986.66
2018-04-25T01:12:01.645Z,986.66
2018-04-25T01:13:01.500Z,986.64
2018-04-25T01:14:54.900Z,986.61
2018-04-25T01:15:54.845Z,986.61
2018-04-25T01:17:49.208Z,986.56
2018-04-25T01:18:49.133Z,986.57
2018-04-25T01:20:45.049Z,986.55
2018-04-25T01:21:44.995Z,986.52
2018-04-25T01:23:38.374Z,986.54
2018-04-25T01:24:38.322Z,986.51
2018-04-25T01:26:31.728Z,986.54
2018-04-25T01:27:31.670Z,986.51
2018-04-25T01:29:25.057Z,986.49
2018-04-25T01:30:25.005Z,986.51
2018-04-25T01:32:18.412Z,986.54
2018-04-25T01:33:18.364Z,986.51
2018-04-25T01:35:11.755Z,986.54
2018-04-25T01:36:11.712Z,986.46
2018-04-25T01:38:07.595Z,986.48
2018-04-25T01:39:07.542Z,986.48
2018-04-25T01:41:01.596Z,986.48
2018-04-25T01:42:00.888Z,986.46
2018-04-25T01:43:54.295Z,986.49
2018-04-25T01:44:54.250Z,986.43
2018-04-25T01:46:47.697Z,986.48
2018-04-25T01:47:47.637Z,986.47
2018-04-25T01:49:41.029Z,986.48
2018-04-25T01:50:40.985Z,986.48
2018-04-25T01:52:34.376Z,986.51
2018-04-25T01:53:34.308Z,986.52
2018-04-25T01:55:30.227Z,986.53
2018-04-25T01:56:30.154Z,986.52
2018-04-25T01:58:23.534Z,986.53
2018-04-25T01:59:23.481Z,986.51
2018-04-25T02:01:16.864Z,986.48
2018-04-25T02:02:16.819Z,986.46
2018-04-25T02:04:10.440Z,986.47
2018-04-25T02:05:10.369Z,986.43
2018-04-25T02:07:06.298Z,986.47
2018-04-25T02:08:06.209Z,986.41
2018-04-25T02:09:59.583Z,986.42
2018-04-25T02:10:59.537Z,986.41
2018-04-25T02:12:55.446Z,986.38
2018-04-25T02:13:55.379Z,986.40
2018-04-25T02:15:48.798Z,986.34
2018-04-25T02:16:48.716Z,986.35
2018-04-25T02:18:44.642Z,986.34
2018-04-25T02:19:44.569Z,986.34
2018-04-25T02:21:37.956Z,986.31
2018-04-25T02:22:37.898Z,986.31
2018-04-25T02:24:31.353Z,986.21
2018-04-25T02:25:31.296Z,986.23
2018-04-25T02:27:24.665Z,986.23
2018-04-25T02:28:24.611Z,986.21
2018-04-25T02:30:18.850Z,986.16
2018-04-25T02:31:18.787Z,986.15
2018-04-25T02:33:14.685Z,986.08
2018-04-25T02:34:14.650Z,986.08
2018-04-25T02:36:08.051Z,986.07
2018-04-25T02:37:07.996Z,986.03
2018-04-25T02:39:01.386Z,986.01
2018-04-25T02:40:01.334Z,985.98
2018-04-25T02:41:54.955Z,985.99
2018-04-25T02:42:54.902Z,985.96
2018-04-25T02:44:50.850Z,985.93
2018-04-25T02:45:50.799Z,985.88
2018-04-25T02:47:44.172Z,985.90
2018-04-25T02:48:44.119Z,985.83
2018-04-25T02:50:40.010Z,985.80
2018-04-25T02:51:39.960Z,985.79
2018-04-25T02:53:33.366Z,985.73
2018-04-25T02:54:33.304Z,985.75
2018-04-25T02:56:26.687Z,985.70
2018-04-25T02:57:26.638Z,985.69
2018-04-25T02:59:20.015Z,985.67
2018-04-25T03:00:19.999Z,985.68
2018-04-25T03:02:13.393Z,985.66
2018-04-25T03:03:13.307Z,985.65
2018-04-25T03:05:06.691Z,985.67
2018-04-25T03:06:06.646Z,985.64
2018-04-25T03:08:00.017Z,985.68
2018-04-25T03:08:59.972Z,985.64
2018-04-25T03:10:53.349Z,985.67
2018-04-25T03:11:53.298Z,985.63
2018-04-25T03:13:46.750Z,985.65
2018-04-25T03:14:46.705Z,985.60
2018-04-25T03:16:40.114Z,985.58
2018-04-25T03:17:40.070Z,985.61
2018-04-25T03:19:33.458Z,985.63
2018-04-25T03:20:33.428Z,985.63
2018-04-25T03:22:26.865Z,985.60
2018-04-25T03:23:26.750Z,985.60
2018-04-25T03:25:20.207Z,985.57
2018-04-25T03:26:20.138Z,985.57
2018-04-25T03:28:13.537Z,985.50
2018-04-25T03:29:13.486Z,985.50
2018-04-25T03:31:06.896Z,985.46
2018-04-25T03:32:06.829Z,985.44
2018-04-25T03:34:03.578Z,985.43
2018-04-25T03:35:03.539Z,985.43
2018-04-25T03:36:56.922Z,985.40
2018-04-25T03:37:56.867Z,985.39
2018-04-25T03:39:52.826Z,985.34
2018-04-25T03:40:52.714Z,985.32
2018-04-25T03:42:46.104Z,985.33
2018-04-25T03:43:46.049Z,985.34
2018-04-25T03:45:40.336Z,985.32
2018-04-25T03:46:40.284Z,985.30
2018-04-25T03:48:33.695Z,985.26
2018-04-25T03:49:33.639Z,985.26
2018-04-25T03:51:29.588Z,985.34
2018-04-25T03:52:29.494Z,985.40
2018-04-25T03:54:22.930Z,985.38
2018-04-25T03:55:22.882Z,985.37
2018-04-25T03:57:18.801Z,985.41
2018-04-25T03:58:18.743Z,985.43
2018-04-25T04:00:12.142Z,985.45
2018-04-25T04:01:12.102Z,985.50
2018-04-25T04:03:07.965Z,985.54
2018-04-25T04:04:07.923Z,985.56
2018-04-25T04:06:01.343Z,985.57
2018-04-25T04:07:01.285Z,985.57
2018-04-25T04:08:54.681Z,985.67
2018-04-25T04:09:54.621Z,985.69
2018-04-25T04:11:48.080Z,985.65
2018-04-25T04:12:48.030Z,985.62
2018-04-25T04:14:43.945Z,985.58
2018-04-25T04:15:43.872Z,985.55
2018-04-25T04:17:37.283Z,985.50
2018-04-25T04:18:37.204Z,985.51
2018-04-25T04:20:33.190Z,985.47
2018-04-25T04:21:33.132Z,985.51
2018-04-25T04:23:26.578Z,985.50
2018-04-25T04:24:26.477Z,985.45
2018-04-25T04:26:19.878Z,985.50
2018-04-25T04:27:19.825Z,985.52
2018-04-25T04:29:15.714Z,985.54
2018-04-25T04:30:15.665Z,985.57
2018-04-25T04:32:09.093Z,985.55
2018-04-25T04:33:09.034Z,985.57
2018-04-25T04:35:04.963Z,985.58
2018-04-25T04:36:04.900Z,985.53
2018-04-25T04:38:00.792Z,985.55
2018-04-25T04:39:00.740Z,985.58
2018-04-25T04:40:54.145Z,985.56
2018-04-25T04:41:54.089Z,985.56
2018-04-25T04:43:49.985Z,985.59
2018-04-25T04:44:49.931Z,985.60
2018-04-25T04:46:43.313Z,985.62
2018-04-25T04:47:43.253Z,985.62
2018-04-25T04:49:39.317Z,985.59
2018-04-25T04:50:39.269Z,985.63
2018-04-25T04:52:33.469Z,985.63
2018-04-25T04:53:33.407Z,985.62
2018-04-25T04:55:29.323Z,985.62
2018-04-25T04:56:29.308Z,985.65
2018-04-25T04:58:22.667Z,985.57
2018-04-25T04:59:22.666Z,985.55
2018-04-25T05:01:16.015Z,985.53
2018-04-25T05:02:15.954Z,985.51
2018-04-25T05:04:11.837Z,985.52
2018-04-25T05:05:11.791Z,985.53
2018-04-25T05:07:19.217Z,985.52
2018-04-25T05:08:19.149Z,985.51
2018-04-25T05:10:12.553Z,985.57
2018-04-25T05:11:12.507Z,985.48
2018-04-25T05:13:08.413Z,985.46
2018-04-25T05:14:08.361Z,985.51
2018-04-25T05:16:01.788Z,985.51
2018-04-25T05:17:01.733Z,985.50
2018-04-25T05:18:55.148Z,985.52
2018-04-25T05:19:55.093Z,985.51
2018-04-25T05:21:48.520Z,985.48
2018-04-25T05:22:48.461Z,985.54
2018-04-25T05:24:41.984Z,985.55
2018-04-25T05:25:41.869Z,985.57
2018-04-25T05:27:35.258Z,985.53
2018-04-25T05:28:35.193Z,985.50
2018-04-25T05:30:28.622Z,985.52
2018-04-25T05:31:28.579Z,985.45
2018-04-25T05:33:22.044Z,985.50
2018-04-25T05:34:22.007Z,985.48
2018-04-25T05:36:15.385Z,985.40
2018-04-25T05:37:15.333Z,985.43
2018-04-25T05:39:11.269Z,985.44
2018-04-25T05:40:11.217Z,985.46
2018-04-25T05:42:07.101Z,985.46
2018-04-25T05:43:07.048Z,985.49
2018-04-25T05:45:00.475Z,985.47
2018-04-25T05:46:00.421Z,985.44
2018-04-25T05:47:53.794Z,985.44
2018-04-25T05:48:53.765Z,985.46
2018-04-25T05:50:48.153Z,985.46
2018-04-25T05:51:48.147Z,985.46
2018-04-25T05:53:42.307Z,985.49
2018-04-25T05:54:42.260Z,985.50
2018-04-25T05:56:35.685Z,985.49
2018-04-25T05:57:35.631Z,985.49
2018-04-25T05:59:29.012Z,985.40
2018-04-25T06:00:28.968Z,985.40
2018-04-25T06:02:24.865Z,985.42
2018-04-25T06:03:24.810Z,985.41
2018-04-25T06:05:18.203Z,985.41
2018-04-25T06:06:18.158Z,985.43
2018-04-25T06:08:11.545Z,985.41
2018-04-25T06:09:11.550Z,985.44
2018-04-25T06:11:04.899Z,985.40
2018-04-25T06:12:04.840Z,985.43
2018-04-25T06:13:58.210Z,985.42
2018-04-25T06:14:58.159Z,985.47
2018-04-25T06:16:51.557Z,985.45
2018-04-25T06:17:51.504Z,985.43
2018-04-25T06:19:44.947Z,985.36
2018-04-25T06:20:44.854Z,985.42
2018-04-25T06:22:38.262Z,985.40
2018-04-25T06:23:38.216Z,985.43
2018-04-25T06:25:31.601Z,985.43
2018-04-25T06:26:31.603Z,985.40
2018-04-25T06:28:24.996Z,985.44
2018-04-25T06:29:24.933Z,985.34
2018-04-25T06:31:18.346Z,985.40
2018-04-25T06:32:18.293Z,985.39
2018-04-25T06:34:11.705Z,985.33
2018-04-25T06:35:11.651Z,985.32
2018-04-25T06:37:08.421Z,985.28
2018-04-25T06:38:08.364Z,985.24
2018-04-25T06:40:04.255Z,985.30
2018-04-25T06:41:04.274Z,985.31
2018-04-25T06:42:57.632Z,985.26
2018-04-25T06:43:57.573Z,985.22
2018-04-25T06:45:51.011Z,985.22
2018-04-25T06:46:50.918Z,985.16
2018-04-25T06:47:50.895Z,985.15
2018-04-25T06:48:50.916Z,985.16
2018-04-25T06:49:50.852Z,985.10
2018-04-25T06:50:50.831Z,985.15
2018-04-25T06:51:50.812Z,985.19
2018-04-25T06:52:50.795Z,985.04
2018-04-25T06:53:50.785Z,985.10
2018-04-25T06:54:50.753Z,985.17
2018-04-25T06:55:50.737Z,985.32
2018-04-25T06:56:50.767Z,985.20
2018-04-25T06:57:50.694Z,985.08
2018-04-25T06:58:50.675Z,985.12
2018-04-25T06:59:50.657Z,985.07
2018-04-25T07:00:50.637Z,985.00
2018-04-25T07:01:50.612Z,984.97
2018-04-25T07:02:50.595Z,985.08
2018-04-25T07:03:50.574Z,985.12
2018-04-25T07:04:50.557Z,985.01
2018-04-25T07:05:50.535Z,984.96
2018-04-25T07:06:50.515Z,984.92
2018-04-25T07:07:50.586Z,984.95
2018-04-25T07:08:50.479Z,984.87
2018-04-25T07:09:50.455Z,984.81
2018-04-25T07:10:50.440Z,984.87
2018-04-25T07:11:50.416Z,984.80
2018-04-25T07:12:50.397Z,984.80
2018-04-25T07:13:50.378Z,984.86
2018-04-25T07:14:50.357Z,984.80
2018-04-25T07:15:50.340Z,984.76
2018-04-25T07:16:50.317Z,984.79
2018-04-25T07:17:50.306Z,984.73
2018-04-25T07:18:50.279Z,984.72
2018-04-25T07:19:50.272Z,984.83
2018-04-25T07:20:50.242Z,984.66
2018-04-25T07:21:50.222Z,984.66
2018-04-25T07:22:50.203Z,984.63
2018-04-25T07:23:50.279Z,984.61
2018-04-25T07:24:50.165Z,984.56
2018-04-25T07:25:50.143Z,984.61
2018-04-25T07:26:50.124Z,984.67
2018-04-25T07:27:50.113Z,984.54
2018-04-25T07:28:50.108Z,984.59
2018-04-25T07:29:50.061Z,984.49
2018-04-25T07:30:50.052Z,984.53
2018-04-25T07:31:50.025Z,984.54
2018-04-25T07:32:50.016Z,984.52
2018-04-25T07:33:50.026Z,984.52
2018-04-25T07:34:49.966Z,984.75
2018-04-25T07:35:49.945Z,984.54
2018-04-25T07:36:49.930Z,984.44
2018-04-25T07:37:49.921Z,984.54
2018-04-25T07:38:49.895Z,984.49
2018-04-25T07:39:49.869Z,984.41
2018-04-25T07:40:49.848Z,984.48
2018-04-25T07:41:49.879Z,984.49
2018-04-25T07:42:49.862Z,984.42
2018-04-25T07:43:49.787Z,984.54
2018-04-25T07:44:49.769Z,984.51
2018-04-25T07:45:49.748Z,984.58
2018-04-25T07:46:49.749Z,984.45
2018-04-25T07:47:49.713Z,984.35
2018-04-25T07:48:49.692Z,984.29
2018-04-25T07:49:49.675Z,984.38
2018-04-25T07:50:49.654Z,984.38
2018-04-25T07:51:49.631Z,984.42
2018-04-25T07:52:49.618Z,984.37
2018-04-25T07:53:49.604Z,984.42
2018-04-25T07:54:49.574Z,984.46
2018-04-25T07:55:49.557Z,984.53
2018-04-25T07:56:49.540Z,984.44
2018-04-25T07:57:49.596Z,984.46
2018-04-25T07:58:49.575Z,984.50
2018-04-25T07:59:49.489Z,984.48
2018-04-25T08:00:49.468Z,984.48
2018-04-25T08:01:49.459Z,984.54
2018-04-25T08:02:49.420Z,984.57
2018-04-25T08:03:49.415Z,984.53
2018-04-25T08:04:49.382Z,984.54
2018-04-25T08:05:49.376Z,984.49
2018-04-25T08:06:49.346Z,984.45
2018-04-25T08:07:49.325Z,984.49
2018-04-25T08:08:49.304Z,984.49
2018-04-25T08:09:49.302Z,984.61
2018-04-25T08:10:49.270Z,984.50
2018-04-25T08:11:49.247Z,984.46
2018-04-25T08:12:49.230Z,984.51
2018-04-25T08:13:49.212Z,984.59
2018-04-25T08:14:49.190Z,984.62
2018-04-25T08:15:49.170Z,984.74
2018-04-25T08:16:49.154Z,984.49
2018-04-25T08:17:49.171Z,984.55
2018-04-25T08:18:49.116Z,984.74
2018-04-25T08:19:49.130Z,984.72
2018-04-25T08:20:49.077Z,984.51
2018-04-25T08:21:49.057Z,984.52
2018-04-25T08:22:49.039Z,984.63
2018-04-25T08:23:49.060Z,984.52
2018-04-25T08:24:49.002Z,984.54
2018-04-25T08:25:48.983Z,984.57
2018-04-25T08:26:48.967Z,984.50
2018-04-25T08:27:48.943Z,984.60
2018-04-25T08:28:48.926Z,984.55
2018-04-25T08:29:48.909Z,984.48
2018-04-25T08:30:48.890Z,984.56
2018-04-25T08:31:48.871Z,984.45
2018-04-25T08:32:48.852Z,984.50
2018-04-25T08:33:48.831Z,984.50
2018-04-25T08:34:48.812Z,984.62
2018-04-25T08:35:48.793Z,984.81
2018-04-25T08:36:48.781Z,984.57
2018-04-25T08:37:48.760Z,984.60
2018-04-25T08:38:48.742Z,984.73
2018-04-25T08:39:48.721Z,984.62
2018-04-25T08:40:48.704Z,984.62
2018-04-25T08:41:48.685Z,984.62
2018-04-25T08:42:48.666Z,984.67
2018-04-25T08:43:48.651Z,984.67
2018-04-25T08:44:48.731Z,984.65
2018-04-25T08:45:48.651Z,984.81
2018-04-25T08:46:48.597Z,984.71
2018-04-25T08:47:48.578Z,984.70
2018-04-25T08:48:48.553Z,984.68
2018-04-25T08:49:48.538Z,984.78
2018-04-25T08:50:48.517Z,984.73
2018-04-25T08:51:48.493Z,984.73
2018-04-25T08:52:48.595Z,984.69
2018-04-25T08:53:48.467Z,984.77
2018-04-25T08:54:48.439Z,984.73
2018-04-25T08:55:48.423Z,984.77
2018-04-25T08:56:48.405Z,984.68
2018-04-25T08:57:48.390Z,984.78
2018-04-25T08:58:48.365Z,984.83
2018-04-25T08:59:48.344Z,984.67
2018-04-25T09:00:48.326Z,984.77
2018-04-25T09:01:48.311Z,984.62
2018-04-25T09:02:48.292Z,984.65
2018-04-25T09:03:48.269Z,984.72
2018-04-25T09:04:48.254Z,984.67
2018-04-25T09:05:48.247Z,984.70
2018-04-25T09:06:48.214Z,984.71
2018-04-25T09:07:48.235Z,984.77
2018-04-25T09:08:48.182Z,984.72
2018-04-25T09:09:48.179Z,984.73
2018-04-25T09:10:48.142Z,984.69
2018-04-25T09:11:48.121Z,984.65
2018-04-25T09:12:48.106Z,984.67
2018-04-25T09:13:48.087Z,984.75
2018-04-25T09:14:48.065Z,984.78
2018-04-25T09:15:55.016Z,984.74
2018-04-25T09:16:48.039Z,984.90
2018-04-25T09:17:48.018Z,984.75
2018-04-25T09:18:47.993Z,984.78
2018-04-25T09:19:47.989Z,984.73
2018-04-25T09:20:47.960Z,984.82
2018-04-25T09:21:47.941Z,984.73
2018-04-25T09:22:47.926Z,984.82
2018-04-25T09:23:47.900Z,984.82
2018-04-25T09:24:47.888Z,984.81
2018-04-25T09:25:47.873Z,984.80
2018-04-25T09:26:47.849Z,984.77
2018-04-25T09:27:47.829Z,984.76
2018-04-25T09:28:47.813Z,984.80
2018-04-25T09:29:47.800Z,984.78
2018-04-25T09:30:47.778Z,984.78
2018-04-25T09:31:47.820Z,984.84
2018-04-25T09:32:47.743Z,984.85
2018-04-25T09:33:47.724Z,984.83
2018-04-25T09:34:47.708Z,984.98
2018-04-25T09:35:47.693Z,984.97
2018-04-25T09:36:47.670Z,984.90
2018-04-25T09:37:47.653Z,984.89
2018-04-25T09:38:47.640Z,984.82
2018-04-25T09:39:47.621Z,984.95
2018-04-25T09:40:47.600Z,984.82
2018-04-25T09:41:47.585Z,984.86
2018-04-25T09:42:47.570Z,984.97
2018-04-25T09:43:47.551Z,984.86
2018-04-25T09:44:47.534Z,984.83
2018-04-25T09:45:47.519Z,984.92
2018-04-25T09:46:47.501Z,984.85
2018-04-25T09:47:47.485Z,984.84
2018-04-25T09:48:47.466Z,984.89
2018-04-25T09:49:47.454Z,984.83
2018-04-25T09:50:47.435Z,984.95
2018-04-25T09:51:47.462Z,984.80
2018-04-25T09:52:47.400Z,985.01
2018-04-25T09:53:47.389Z,984.77
2018-04-25T09:54:47.379Z,984.77
2018-04-25T09:55:47.381Z,984.99
2018-04-25T09:56:47.353Z,984.77
2018-04-25T09:57:47.438Z,984.84
2018-04-25T09:58:47.307Z,984.81
2018-04-25T09:59:47.284Z,984.72
2018-04-25T10:00:47.264Z,984.76
2018-04-25T10:01:47.251Z,984.85
2018-04-25T10:02:47.233Z,984.77
2018-04-25T10:03:47.227Z,984.84
2018-04-25T10:04:47.223Z,984.77
2018-04-25T10:05:47.182Z,984.75
2018-04-25T10:06:47.167Z,984.73
2018-04-25T10:07:47.148Z,984.76
2018-04-25T10:08:47.130Z,984.96
2018-04-25T10:09:47.110Z,985.02
2018-04-25T10:10:47.147Z,984.88
2018-04-25T10:11:47.076Z,984.92
2018-04-25T10:12:47.059Z,984.88
2018-04-25T10:13:47.058Z,984.96
2018-04-25T10:14:47.026Z,984.85
2018-04-25T10:15:47.008Z,984.87
2018-04-25T10:16:46.992Z,984.94
2018-04-25T10:17:46.974Z,985.25
2018-04-25T10:18:46.955Z,984.74
2018-04-25T10:19:46.945Z,984.84
2018-04-25T10:20:46.923Z,985.11
2018-04-25T10:21:46.906Z,984.91
2018-04-25T10:22:46.888Z,984.97
2018-04-25T10:23:46.872Z,985.04
2018-04-25T10:24:46.856Z,985.01
2018-04-25T10:25:46.877Z,985.31
2018-04-25T10:26:46.826Z,985.02
2018-04-25T10:27:46.796Z,984.99
2018-04-25T10:28:46.781Z,984.77
2018-04-25T10:29:46.763Z,985.05
2018-04-25T10:30:46.753Z,984.97
2018-04-25T10:31:46.736Z,984.99
2018-04-25T10:32:46.714Z,984.75
2018-04-25T10:33:46.697Z,984.70
2018-04-25T10:34:46.678Z,984.85
2018-04-25T10:35:46.676Z,984.80
2018-04-25T10:36:46.642Z,984.68
2018-04-25T10:37:46.627Z,984.91
2018-04-25T10:38:46.608Z,984.83
2018-04-25T10:39:46.593Z,984.81
2018-04-25T10:40:46.577Z,984.78
2018-04-25T10:41:46.556Z,984.99
2018-04-25T10:42:46.545Z,984.95
2018-04-25T10:43:46.523Z,984.91
2018-04-25T10:44:46.522Z,984.84
2018-04-25T10:45:46.491Z,984.81
2018-04-25T10:46:46.469Z,984.92
2018-04-25T10:47:46.486Z,984.83
2018-04-25T10:48:46.472Z,984.81
2018-04-25T10:49:46.421Z,984.78
2018-04-25T10:50:46.402Z,984.85
2018-04-25T10:51:46.385Z,984.91
2018-04-25T10:52:46.374Z,984.94
2018-04-25T10:53:46.351Z,985.16
2018-04-25T10:54:46.345Z,985.35
2018-04-25T10:55:46.317Z,984.96
2018-04-25T10:56:46.304Z,984.78
2018-04-25T10:57:46.299Z,984.87
2018-04-25T10:58:46.277Z,984.77
2018-04-25T10:59:46.245Z,984.76
2018-04-25T11:00:46.244Z,984.86
2018-04-25T11:01:46.211Z,984.73
2018-04-25T11:02:46.202Z,984.70
2018-04-25T11:03:46.186Z,984.69
2018-04-25T11:04:46.162Z,984.72
2018-04-25T11:05:46.142Z,984.77
2018-04-25T11:06:46.126Z,984.73
2018-04-25T11:07:46.109Z,984.75
2018-04-25T11:08:46.092Z,984.60
2018-04-25T11:09:46.072Z,984.73
2018-04-25T11:10:46.055Z,984.74
2018-04-25T11:11:46.043Z,984.89
2018-04-25T11:12:46.022Z,984.79
2018-04-25T11:13:46.005Z,984.86
2018-04-25T11:14:45.991Z,984.82
2018-04-25T11:15:45.969Z,984.79
2018-04-25T11:16:45.954Z,984.83
2018-04-25T11:17:45.934Z,984.90
2018-04-25T11:18:45.915Z,984.88
2018-04-25T11:19:45.900Z,985.00
2018-04-25T11:20:45.881Z,984.87
2018-04-25T11:21:45.859Z,984.84
2018-04-25T11:22:45.850Z,984.66
2018-04-25T11:23:45.827Z,984.98
2018-04-25T11:24:45.806Z,984.84
2018-04-25T11:25:45.800Z,984.90
2018-04-25T11:26:45.775Z,984.87
2018-04-25T11:27:45.760Z,984.87
2018-04-25T11:28:45.735Z,984.98
2018-04-25T11:29:45.720Z,984.94
2018-04-25T11:30:45.700Z,984.95
2018-04-25T11:31:45.682Z,985.03
2018-04-25T11:32:45.660Z,985.06
2018-04-25T11:33:45.654Z,985.01
2018-04-25T11:34:45.638Z,985.02
2018-04-25T11:35:45.614Z,985.02
2018-04-25T11:36:45.622Z,985.07
2018-04-25T11:37:45.576Z,985.00
2018-04-25T11:38:45.600Z,985.07
2018-04-25T11:39:45.547Z,985.12
2018-04-25T11:40:45.518Z,985.13
2018-04-25T11:41:45.507Z,985.16
2018-04-25T11:42:45.485Z,985.08
2018-04-25T11:43:45.471Z,985.12
2018-04-25T11:44:45.448Z,985.12
2018-04-25T11:45:45.438Z,985.07
2018-04-25T11:48:18.088Z,985.12
2018-04-25T11:49:17.508Z,985.17
2018-04-25T11:51:10.930Z,985.15
2018-04-25T11:52:10.878Z,985.15
2018-04-25T11:54:05.188Z,985.20
2018-04-25T11:55:05.151Z,985.26
2018-04-25T11:56:58.561Z,985.27
2018-04-25T11:57:58.504Z,985.34
2018-04-25T11:59:51.964Z,985.26
2018-04-25T12:00:51.913Z,985.32
2018-04-25T12:02:45.321Z,985.30
2018-04-25T12:03:45.250Z,985.21
2018-04-25T12:05:38.724Z,985.38
2018-04-25T12:06:38.600Z,985.36
2018-04-25T12:08:34.491Z,985.24
2018-04-25T12:09:34.440Z,985.19
2018-04-25T12:11:30.425Z,985.21
2018-04-25T12:12:30.374Z,985.32
2018-04-25T12:14:26.318Z,985.35
2018-04-25T12:15:26.263Z,985.28
2018-04-25T12:17:19.744Z,985.32
2018-04-25T12:18:19.683Z,985.88
2018-04-25T12:20:15.557Z,985.86
2018-04-25T12:21:15.575Z,985.57
2018-04-25T12:23:08.940Z,985.41
2018-04-25T12:24:08.883Z,985.95
2018-04-25T12:26:02.296Z,985.84
2018-04-25T12:27:02.257Z,985.85
2018-04-25T12:28:55.640Z,985.43
2018-04-25T12:29:55.593Z,985.51
2018-04-25T12:31:49.022Z,985.56
2018-04-25T12:32:48.957Z,985.51
2018-04-25T12:34:42.421Z,985.25
2018-04-25T12:35:42.408Z,985.25
2018-04-25T12:37:38.246Z,985.26
2018-04-25T12:38:38.199Z,985.44
2018-04-25T12:40:34.131Z,985.21
2018-04-25T12:41:34.084Z,985.15
2018-04-25T12:43:27.475Z,985.42
2018-04-25T12:44:27.424Z,985.44
2018-04-25T12:46:23.340Z,985.46
2018-04-25T12:47:23.280Z,985.46
2018-04-25T12:49:16.675Z,985.67
2018-04-25T12:50:16.630Z,985.26
2018-04-25T12:52:10.062Z,985.42
2018-04-25T12:53:09.985Z,985.47
2018-04-25T12:55:05.896Z,985.45
2018-04-25T12:56:05.924Z,985.39
2018-04-25T12:57:59.234Z,985.43
2018-04-25T12:58:59.180Z,985.49
2018-04-25T13:00:53.426Z,985.51
2018-04-25T13:01:53.377Z,985.44
2018-04-25T13:03:46.857Z,985.54
2018-04-25T13:04:46.809Z,985.57
2018-04-25T13:06:40.367Z,985.41
2018-04-25T13:07:40.301Z,985.56
2018-04-25T13:09:33.720Z,985.45
2018-04-25T13:10:33.729Z,985.44
2018-04-25T13:12:30.464Z,985.73
2018-04-25T13:13:30.402Z,986.02
2018-04-25T13:15:23.913Z,985.50
2018-04-25T13:16:23.754Z,985.55
2018-04-25T13:18:19.659Z,985.65
2018-04-25T13:19:19.606Z,985.45
2018-04-25T13:21:12.996Z,985.52
2018-04-25T13:22:12.956Z,985.62
2018-04-25T13:24:08.850Z,985.56
2018-04-25T13:25:08.856Z,985.54
2018-04-25T13:27:04.788Z,985.44
2018-04-25T13:28:04.730Z,985.56
2018-04-25T13:30:00.629Z,985.68
2018-04-25T13:31:00.583Z,985.58
2018-04-25T13:32:54.010Z,985.81
2018-04-25T13:33:53.930Z,985.87
2018-04-25T13:35:47.324Z,985.95
2018-04-25T13:36:47.283Z,986.02
2018-04-25T13:38:43.267Z,986.14
2018-04-25T13:39:43.169Z,986.06
2018-04-25T13:41:36.572Z,986.04
2018-04-25T13:42:36.518Z,986.12
2018-04-25T13:44:32.435Z,986.14
2018-04-25T13:45:32.388Z,986.22
2018-04-25T13:47:28.272Z,986.25
2018-04-25T13:48:28.217Z,986.33
2018-04-25T13:50:24.149Z,986.35
2018-04-25T13:51:24.091Z,986.34
2018-04-25T13:53:17.502Z,986.21
2018-04-25T13:54:17.449Z,986.22
2018-04-25T13:56:10.866Z,986.25
2018-04-25T13:57:10.812Z,986.26
2018-04-25T13:59:04.196Z,986.20
2018-04-25T14:00:04.149Z,986.09
2018-04-25T14:01:58.477Z,986.07
2018-04-25T14:02:58.412Z,986.14
2018-04-25T14:04:51.817Z,986.12
2018-04-25T14:05:51.755Z,986.08
2018-04-25T14:07:45.155Z,986.14
2018-04-25T14:08:45.105Z,986.19
2018-04-25T14:10:38.552Z,986.22
2018-04-25T14:11:38.497Z,986.16
2018-04-25T14:13:31.958Z,986.22
2018-04-25T14:14:31.912Z,986.35
2018-04-25T14:16:27.853Z,986.34
2018-04-25T14:17:27.792Z,986.32
2018-04-25T14:19:23.715Z,986.19
2018-04-25T14:20:23.657Z,986.28
2018-04-25T14:22:19.590Z,986.29
2018-04-25T14:23:19.523Z,986.27
2018-04-25T14:25:12.920Z,986.37
2018-04-25T14:26:12.876Z,986.43
2018-04-25T14:28:08.778Z,986.66
2018-04-25T14:29:08.728Z,986.56
2018-04-25T14:31:02.126Z,986.53
2018-04-25T14:32:02.071Z,986.62
2018-04-25T14:33:58.033Z,986.71
2018-04-25T14:34:57.946Z,986.69
2018-04-25T14:36:51.367Z,986.64
2018-04-25T14:37:51.288Z,986.59
2018-04-25T14:39:44.921Z,986.62
2018-04-25T14:40:44.870Z,986.56
2018-04-25T14:42:38.299Z,986.63
2018-04-25T14:43:38.239Z,986.54
2018-04-25T14:45:31.645Z,986.53
2018-04-25T14:46:31.595Z,986.46
2018-04-25T14:48:25.055Z,986.48
2018-04-25T14:49:24.935Z,986.60
2018-04-25T14:51:20.985Z,986.55
2018-04-25T14:52:20.910Z,986.53
2018-04-25T14:54:14.313Z,986.60
2018-04-25T14:55:14.260Z,986.59
2018-04-25T14:57:07.657Z,986.63
2018-04-25T14:58:07.610Z,986.69
2018-04-25T15:00:03.535Z,986.67
2018-04-25T15:01:03.476Z,986.66
2018-04-25T15:02:59.372Z,986.64
2018-04-25T15:03:59.324Z,986.64
2018-04-25T15:05:55.206Z,986.62
2018-04-25T15:06:55.156Z,986.63
2018-04-25T15:08:51.257Z,986.48
2018-04-25T15:09:51.105Z,986.54
2018-04-25T15:11:47.032Z,986.53
2018-04-25T15:12:46.967Z,986.51
2018-04-25T15:14:42.868Z,986.43
2018-04-25T15:15:42.817Z,986.49
2018-04-25T15:17:38.762Z,986.40
2018-04-25T15:18:38.688Z,986.50
2018-04-25T15:20:32.119Z,986.55
2018-04-25T15:21:32.033Z,986.59
2018-04-25T15:23:27.932Z,986.59
2018-04-25T15:24:27.875Z,986.61
2018-04-25T15:26:23.787Z,986.54
2018-04-25T15:27:23.728Z,986.52
2018-04-25T15:29:19.621Z,986.59
2018-04-25T15:30:19.583Z,986.65
2018-04-25T15:32:15.486Z,986.69
2018-04-25T15:33:15.416Z,986.74
2018-04-25T15:35:11.349Z,986.81
2018-04-25T15:36:11.296Z,986.78
2018-04-25T15:38:07.199Z,986.82
2018-04-25T15:39:07.150Z,986.82
2018-04-25T15:41:03.080Z,986.86
2018-04-25T15:42:02.981Z,986.80
2018-04-25T15:43:56.442Z,986.81
2018-04-25T15:44:56.391Z,986.79
2018-04-25T15:46:49.802Z,986.87
2018-04-25T15:47:49.748Z,986.91
2018-04-25T15:49:43.194Z,986.88
2018-04-25T15:50:43.093Z,986.85
2018-04-25T15:52:36.514Z,986.79